CBCO2: Big Creek near Childers, OK

                                SHEF ID:       CBCO2     Big Creek near Childers, OK
STATION TYPE:

PRECIP STAGE RIV-FLOW VOLTAGE BAT-LOAD
in ft cfs volt volt
Ccp-Rev Ccp-Rev Ccp-Rev Ccp-Rev Ccp-Rev
(America/Chicago)
05/06 00:00 0.00 10.09 457 12.83 12.40
05/06 01:00 0.00 10.03 419 12.83 12.40
05/06 02:00 0.00 9.99 393 12.83 12.40
05/06 03:00 0.00 9.95 367 12.82 12.39
05/06 04:00 0.00 9.92 348 12.82 12.40
05/06 05:00 0.00 9.90 335 12.81 12.40
05/06 06:00 0.00 9.87 316 12.81 12.39
05/06 07:00 0.00 9.85 303 12.81 12.38
05/06 08:00 0.00 9.82 284 12.87 12.40
05/06 09:00 0.00 9.80 271 13.23 12.61
05/06 10:00 0.00 9.78 262 13.96 12.81
05/06 11:00 0.00 9.77 257 13.67 13.02
05/06 12:00 0.00 9.76 253 13.33 12.96
05/06 13:00 0.00 9.73 239 13.26 12.80
05/06 14:00 0.00 9.72 235 13.32 12.86
05/06 15:00 0.00 9.70 226 13.24 12.78
05/06 16:00 0.00 9.70 226 13.22 12.73
05/06 17:00 0.00 9.69 222 13.20 12.71
05/06 18:00 0.00 9.68 217 13.19 12.70
05/06 19:00 0.00 9.66 209 13.16 12.67
05/06 20:00 0.00 9.65 205 13.06 12.63
05/06 21:00 0.00 9.65 205 13.03 12.58
05/06 22:00 0.00 9.63 196 12.99 12.58
05/06 23:00 0.00 9.62 192 12.96 12.56
Data processed at Thu 07May2026 04:38 GMT

NOTICE: If you are parsing this page

Please convert to using our Data API. Starting early 2026 we will be migrating to: https://water.usace.army.mil with modern pages rendered in JavaScript. When this migration completes you will no longer be able to scrape this page! CWMSDataAPI (CDA)

Timeseries IDs (TSIDs)

TSIDs used from left to right in the data table
CHIB.Precip-Inc.Total.1Hour.1Hour.Ccp-Rev
CHIB.Stage.Inst.1Hour.0.Ccp-Rev
CHIB.Flow.Inst.1Hour.0.Ccp-Rev
CHIB.Volt-Battery.Inst.1Hour.0.Ccp-Rev
CHIB.Volt-Battery Load.Inst.1Hour.0.Ccp-Rev

                            

All information presented herein is the property of the government of the United States of America and may be revised or deleted at any time without prior notice. Dissemination of this information without the expressed written consent of the Public Affairs Office, Tulsa District U.S. Army Corps of Engineers is strictly prohibited. These data are gathered electronically and, as presented, have NOT undergone any form of quality control. These data are NOT guaranteed to be valid or correct.